Time;durP1;ratioP1;P1;durP2;ratioP2;P2;SDS_P1;SDS_P2;PMS_P1;PMS_P2;Temp;Humidity;BMP_temperature;BMP_pressure;BME280_temperature;BME280_humidity;BME280_pressure;Samples;Min_cycle;Max_cycle;Signal;HPM_P1;HPM_P2
2021/05/07 00:01:02;;;;;;;0.10;0.10;;;;;;;1.91;99.76;100476.28;1732224;82;21126;-40
2021/05/07 00:03:30;;;;;;;0.10;0.10;;;;;;;1.87;99.80;100474.53;1732228;81;21181;-41
2021/05/07 00:05:58;;;;;;;0.10;0.10;;;;;;;1.83;99.84;100478.73;1732235;82;21161;-40
2021/05/07 00:08:31;;;;;;;0.20;0.20;;;;;;;1.82;99.89;100474.91;1732226;82;21145;-40
2021/05/07 00:11:02;;;;;;;0.10;0.10;;;;;;;1.78;99.95;100483.12;1732058;82;21141;-40
2021/05/07 00:13:29;;;;;;;0.00;0.00;;;;;;;1.75;100.00;100485.73;1702692;84;21663;-39
2021/05/07 00:15:57;;;;;;;0.10;0.10;;;;;;;1.72;100.00;100488.34;1731946;82;21119;-39
2021/05/07 00:18:25;;;;;;;0.00;0.00;;;;;;;1.71;100.00;100485.89;1721523;83;21162;-40
2021/05/07 00:20:54;;;;;;;0.80;0.80;;;;;;;1.70;100.00;100486.39;1724118;83;21483;-40
2021/05/07 00:23:23;;;;;;;0.40;0.40;;;;;;;1.63;100.00;100485.64;1732218;81;21421;-40
2021/05/07 00:25:52;;;;;;;0.13;0.13;;;;;;;1.55;99.94;100488.58;1726898;81;21186;-39
2021/05/07 00:28:20;;;;;;;0.00;0.00;;;;;;;1.50;99.98;100490.58;1726723;81;21473;-41
2021/05/07 00:30:48;;;;;;;0.10;0.10;;;;;;;1.45;100.00;100495.80;1726681;83;21153;-40
2021/05/07 00:33:16;;;;;;;0.10;0.10;;;;;;;1.43;100.00;100494.37;1726655;83;21161;-40
2021/05/07 00:35:44;;;;;;;1.12;0.20;;;;;;;1.41;100.00;100491.06;1726616;82;21131;-41
2021/05/07 00:38:11;;;;;;;0.00;0.00;;;;;;;1.38;100.00;100494.20;1726745;82;21569;-40
2021/05/07 00:40:40;;;;;;;0.33;0.33;;;;;;;1.35;100.00;100491.95;1726782;82;21143;-39
2021/05/07 00:43:09;;;;;;;0.05;0.05;;;;;;;1.31;100.00;100493.41;1700024;83;21496;-39
2021/05/07 00:45:36;;;;;;;0.25;0.25;;;;;;;1.28;100.00;100499.53;1726762;81;21149;-40
2021/05/07 00:48:11;;;;;;;0.10;0.10;;;;;;;1.25;100.00;100497.28;1727055;83;21118;-40
2021/05/07 00:50:40;;;;;;;0.35;0.35;;;;;;;1.22;100.00;100494.22;1727152;81;21143;-40
2021/05/07 00:53:08;;;;;;;0.10;0.10;;;;;;;1.18;100.00;100491.11;1726740;83;21138;-40
2021/05/07 00:55:37;;;;;;;0.10;0.10;;;;;;;1.16;100.00;100491.84;1727143;81;21177;-40
2021/05/07 00:58:07;;;;;;;0.28;0.28;;;;;;;1.15;100.00;100490.20;1727185;83;21126;-39
2021/05/07 01:00:34;;;;;;;0.10;0.10;;;;;;;1.14;100.00;100488.57;1703697;83;21133;-40
2021/05/07 01:03:03;;;;;;;0.10;0.10;;;;;;;1.13;100.00;100492.81;1726884;82;21142;-40
2021/05/07 01:05:30;;;;;;;0.20;0.20;;;;;;;1.11;100.00;100484.94;1700142;83;21178;-40
2021/05/07 01:07:58;;;;;;;0.00;0.00;;;;;;;1.11;100.00;100484.94;1712363;83;21141;-41
2021/05/07 01:10:26;;;;;;;0.30;0.30;;;;;;;1.10;100.00;100485.17;1697779;83;21177;-40
2021/05/07 01:12:54;;;;;;;0.00;0.00;;;;;;;1.06;100.00;100480.73;1697775;84;21138;-40
2021/05/07 01:15:24;;;;;;;0.28;0.28;;;;;;;1.02;100.00;100482.22;1717171;83;21445;-41
2021/05/07 01:17:55;;;;;;;0.15;0.15;;;;;;;0.96;100.00;100484.41;1726943;82;21440;-40
2021/05/07 01:20:31;;;;;;;0.10;0.10;;;;;;;0.92;100.00;100488.06;1726726;82;21260;-40
2021/05/07 01:23:01;;;;;;;0.17;0.17;;;;;;;0.90;100.00;100496.05;1726685;83;21150;-40
2021/05/07 01:25:39;;;;;;;0.03;0.03;;;;;;;0.86;100.00;100492.42;1730326;81;21157;-40
2021/05/07 01:28:08;;;;;;;0.10;0.10;;;;;;;0.83;100.00;100496.89;1701341;82;20999;-40
2021/05/07 01:30:38;;;;;;;0.10;0.10;;;;;;;0.82;100.00;100499.28;1732274;81;21417;-40
2021/05/07 01:33:10;;;;;;;0.10;0.10;;;;;;;0.82;100.00;100501.98;1701628;82;21181;-40
2021/05/07 01:35:36;;;;;;;0.00;0.00;;;;;;;0.82;100.00;100503.32;1732487;81;21188;-39
2021/05/07 01:38:08;;;;;;;0.10;0.10;;;;;;;0.80;100.00;100500.02;1732570;82;21433;-40
2021/05/07 01:40:41;;;;;;;0.10;0.10;;;;;;;0.77;100.00;100500.45;1732237;81;21134;-40
2021/05/07 01:43:09;;;;;;;0.10;0.10;;;;;;;0.72;100.00;100498.07;1732341;82;21138;-40
2021/05/07 01:45:41;;;;;;;0.10;0.10;;;;;;;0.65;100.00;100495.43;1701116;82;21133;-40
2021/05/07 01:48:08;;;;;;;0.13;0.13;;;;;;;0.63;100.00;100504.22;1732642;82;21181;-39
2021/05/07 01:50:40;;;;;;;0.20;0.20;;;;;;;0.61;100.00;100502.27;1732612;81;21126;-39
2021/05/07 01:53:08;;;;;;;0.10;0.10;;;;;;;0.59;100.00;100503.84;1732651;82;21154;-39
2021/05/07 01:55:41;;;;;;;0.62;0.62;;;;;;;0.56;100.00;100504.23;1701415;82;21122;-40
2021/05/07 01:58:13;;;;;;;0.10;0.10;;;;;;;0.54;100.00;100502.27;1732604;82;21872;-39
2021/05/07 02:00:43;;;;;;;0.10;0.10;;;;;;;0.52;100.00;100499.00;1732572;82;21154;-41
2021/05/07 02:03:11;;;;;;;0.00;0.00;;;;;;;0.52;100.00;100512.94;1732617;82;21117;-39
2021/05/07 02:05:41;;;;;;;0.50;0.50;;;;;;;0.49;100.00;100520.91;1731634;82;21122;-41
2021/05/07 02:08:10;;;;;;;0.10;0.10;;;;;;;0.48;100.00;100521.14;1732517;82;21130;-40
2021/05/07 02:10:40;;;;;;;0.10;0.10;;;;;;;0.46;100.00;100523.20;1720686;83;21858;-39
2021/05/07 02:13:10;;;;;;;0.30;0.30;;;;;;;0.46;100.00;100524.03;1667535;84;21134;-40
2021/05/07 02:15:38;;;;;;;1.00;0.68;;;;;;;0.45;100.00;100521.05;1715479;83;21135;-40
2021/05/07 02:18:07;;;;;;;0.30;0.30;;;;;;;0.45;100.00;100524.26;1724125;83;21086;-39
2021/05/07 02:20:38;;;;;;;0.30;0.30;;;;;;;0.42;100.00;100526.33;1722622;81;21134;-39
2021/05/07 02:23:06;;;;;;;0.20;0.20;;;;;;;0.41;100.00;100529.21;1694842;84;21216;-41
2021/05/07 02:25:34;;;;;;;0.10;0.10;;;;;;;0.40;100.00;100532.95;1702317;83;21139;-39
2021/05/07 02:28:02;;;;;;;0.23;0.23;;;;;;;0.39;100.00;100533.44;1728713;82;21157;-40
2021/05/07 02:30:32;;;;;;;0.20;0.20;;;;;;;0.38;100.00;100537.70;1766760;79;21157;-40
2021/05/07 02:33:02;;;;;;;0.10;0.10;;;;;;;0.37;100.00;100550.82;1791603;80;21133;-40
2021/05/07 02:35:30;;;;;;;0.03;0.03;;;;;;;0.36;100.00;100546.49;1710364;82;21418;-39
2021/05/07 02:37:59;;;;;;;0.10;0.10;;;;;;;0.36;100.00;100544.63;1791651;80;21138;-39
2021/05/07 02:40:27;;;;;;;0.47;0.47;;;;;;;0.37;100.00;100550.82;1791698;78;21117;-40
2021/05/07 02:42:55;;;;;;;0.20;0.20;;;;;;;0.37;100.00;100553.02;1762724;80;21432;-41
2021/05/07 02:45:25;;;;;;;0.47;0.47;;;;;;;0.38;100.00;100541.22;1764858;81;21588;-39
2021/05/07 02:47:54;;;;;;;1.50;1.42;;;;;;;0.43;100.00;100542.75;1716475;82;21156;-39
2021/05/07 02:50:22;;;;;;;1.52;1.45;;;;;;;0.47;100.00;100547.70;1791553;78;21145;-40
2021/05/07 02:52:50;;;;;;;0.57;0.57;;;;;;;0.51;100.00;100543.56;1791758;80;21509;-40
2021/05/07 02:55:17;;;;;;;0.20;0.20;;;;;;;0.57;100.00;100546.73;1791731;78;21619;-40
2021/05/07 02:57:45;;;;;;;0.20;0.20;;;;;;;0.63;100.00;100538.66;1791882;80;21141;-39
2021/05/07 03:00:15;;;;;;;0.10;0.10;;;;;;;0.69;100.00;100545.57;1735208;82;21145;-39
2021/05/07 03:02:43;;;;;;;0.20;0.20;;;;;;;0.76;100.00;100549.89;1743337;81;21155;-40
2021/05/07 03:05:11;;;;;;;0.03;0.03;;;;;;;0.88;100.00;100545.20;1757022;80;21497;-40
2021/05/07 03:07:39;;;;;;;0.00;0.00;;;;;;;0.97;100.00;100552.01;1723539;83;21659;-40
2021/05/07 03:10:07;;;;;;;0.17;0.17;;;;;;;1.04;100.00;100546.08;1716169;82;21114;-40
2021/05/07 03:12:36;;;;;;;0.10;0.10;;;;;;;1.14;100.00;100548.28;1740970;82;21129;-40
2021/05/07 03:15:06;;;;;;;0.23;0.23;;;;;;;1.24;100.00;100544.10;1740714;82;21176;-39
2021/05/07 03:17:34;;;;;;;0.10;0.10;;;;;;;1.32;100.00;100544.89;1740971;82;21129;-42
2021/05/07 03:20:02;;;;;;;0.00;0.00;;;;;;;1.41;100.00;100544.92;1740805;81;21553;-39
2021/05/07 03:22:31;;;;;;;0.82;0.82;;;;;;;1.51;100.00;100547.98;1740983;82;21145;-40
2021/05/07 03:24:58;;;;;;;0.20;0.20;;;;;;;1.63;100.00;100548.94;1766049;80;21284;-40
2021/05/07 03:27:26;;;;;;;0.00;0.00;;;;;;;1.76;100.00;100552.59;1786090;80;21134;-41
2021/05/07 03:29:53;;;;;;;0.33;0.25;;;;;;;1.92;100.00;100552.03;1786051;78;21406;-40
2021/05/07 03:32:21;;;;;;;0.10;0.10;;;;;;;2.06;100.00;100552.22;1751696;81;21380;-41
2021/05/07 03:34:49;;;;;;;0.00;0.00;;;;;;;2.18;100.00;100558.22;1732314;81;21161;-40
2021/05/07 03:37:18;;;;;;;0.10;0.10;;;;;;;2.30;100.00;100559.15;1786488;80;21021;-40
2021/05/07 03:39:45;;;;;;;0.20;0.20;;;;;;;2.44;100.00;100557.98;1786384;80;21126;-40
2021/05/07 03:42:14;;;;;;;0.10;0.10;;;;;;;2.59;100.00;100556.27;1786568;80;21126;-40
2021/05/07 03:44:42;;;;;;;0.42;0.42;;;;;;;2.77;100.00;100554.12;1786319;80;21122;-41
2021/05/07 03:47:10;;;;;;;0.23;0.23;;;;;;;2.95;100.00;100554.09;1735424;82;21102;-40
2021/05/07 03:49:37;;;;;;;0.25;0.20;;;;;;;3.11;100.00;100554.52;1786391;78;21149;-40
2021/05/07 03:52:05;;;;;;;0.53;0.30;;;;;;;3.28;100.00;100555.54;1785846;80;21621;-39
2021/05/07 03:54:33;;;;;;;0.15;0.15;;;;;;;3.48;100.00;100550.39;1786407;78;21521;-39
2021/05/07 03:57:01;;;;;;;0.30;0.20;;;;;;;3.65;100.00;100551.38;1786413;80;21102;-40
2021/05/07 03:59:29;;;;;;;0.40;0.40;;;;;;;3.86;100.00;100556.79;1786290;78;21107;-40
2021/05/07 04:01:56;;;;;;;0.20;0.20;;;;;;;4.07;100.00;100554.04;1786308;80;21486;-39
2021/05/07 04:04:24;;;;;;;0.62;0.62;;;;;;;4.25;100.00;100551.25;1786196;78;21149;-40
2021/05/07 04:06:52;;;;;;;0.00;0.00;;;;;;;4.43;100.00;100557.59;1786115;80;21499;-40
2021/05/07 04:09:29;;;;;;;0.10;0.10;;;;;;;4.63;100.00;100556.69;1785230;78;21541;-40
2021/05/07 04:11:55;;;;;;;0.57;0.57;;;;;;;4.85;100.00;100556.88;1785211;80;21133;-41
2021/05/07 04:14:19;;;;;;;0.20;0.20;;;;;;;5.05;100.00;100559.19;1786024;78;21160;-41
2021/05/07 04:16:48;;;;;;;0.28;0.28;;;;;;;5.23;100.00;100560.08;1786335;78;21125;-40
2021/05/07 04:19:16;;;;;;;0.35;0.35;;;;;;;5.39;100.00;100565.55;1786455;78;21106;-40
2021/05/07 04:21:44;;;;;;;0.55;0.42;;;;;;;5.57;100.00;100567.23;1786180;80;21157;-40
2021/05/07 04:24:11;;;;;;;0.00;0.00;;;;;;;5.78;100.00;100562.16;1786049;78;21133;-40
2021/05/07 04:26:40;;;;;;;0.33;0.25;;;;;;;5.99;100.00;100561.48;1721060;82;21556;-40
2021/05/07 04:29:08;;;;;;;0.10;0.10;;;;;;;6.23;100.00;100565.36;1746008;81;21131;-41
2021/05/07 04:31:36;;;;;;;0.00;0.00;;;;;;;6.46;100.00;100570.62;1724061;83;21182;-40
2021/05/07 04:34:06;;;;;;;0.10;0.10;;;;;;;6.68;100.00;100571.20;1724143;81;21477;-40
2021/05/07 04:36:33;;;;;;;0.50;0.50;;;;;;;6.82;99.61;100579.25;1701242;82;21152;-41
2021/05/07 04:39:01;;;;;;;0.15;0.15;;;;;;;6.94;98.95;100581.86;1736175;81;21162;-40
2021/05/07 04:41:30;;;;;;;0.75;0.45;;;;;;;7.04;98.42;100582.52;1758352;80;21167;-42
2021/05/07 04:43:59;;;;;;;0.30;0.30;;;;;;;7.15;97.76;100585.66;1762219;80;21151;-40
2021/05/07 04:46:27;;;;;;;0.03;0.03;;;;;;;7.30;97.45;100587.20;1724165;83;21520;-40
2021/05/07 04:48:54;;;;;;;0.62;0.55;;;;;;;7.51;97.43;100586.06;1721367;81;21115;-40
2021/05/07 04:51:22;;;;;;;0.33;0.20;;;;;;;7.72;97.06;100587.92;1698323;83;21163;-41
2021/05/07 04:53:50;;;;;;;0.28;0.28;;;;;;;7.95;96.56;100585.95;1723904;83;21541;-40
2021/05/07 04:56:17;;;;;;;0.13;0.10;;;;;;;8.21;95.87;100577.98;1723889;83;21179;-41
2021/05/07 04:58:45;;;;;;;0.10;0.10;;;;;;;8.46;94.78;100574.14;1723645;83;21134;-41
2021/05/07 05:01:13;;;;;;;0.62;0.62;;;;;;;8.77;93.35;100568.86;1723822;83;21481;-42
2021/05/07 05:03:40;;;;;;;0.37;0.37;;;;;;;9.15;91.73;100575.87;1723784;81;21154;-41
2021/05/07 05:06:08;;;;;;;0.25;0.25;;;;;;;9.50;89.38;100566.16;1692710;83;21176;-43
2021/05/07 05:08:36;;;;;;;0.10;0.10;;;;;;;9.81;86.95;100561.55;1723312;81;21278;-43
2021/05/07 05:11:04;;;;;;;0.00;0.00;;;;;;;10.12;84.35;100560.22;1724049;83;21118;-40
2021/05/07 05:13:31;;;;;;;0.30;0.30;;;;;;;10.43;81.35;100554.19;1723939;83;21140;-40
2021/05/07 05:15:59;;;;;;;0.20;0.20;;;;;;;10.68;78.17;100550.61;1736502;81;21202;-41
2021/05/07 05:18:33;;;;;;;0.05;0.05;;;;;;;10.94;76.35;100553.25;1715977;82;21220;-43
2021/05/07 05:21:05;;;;;;;0.20;0.20;;;;;;;11.19;74.54;100555.86;1727657;82;21170;-40
2021/05/07 05:23:35;;;;;;;0.00;0.00;;;;;;;11.47;72.18;100560.92;1731872;82;21321;-41
2021/05/07 05:26:02;;;;;;;0.45;0.45;;;;;;;11.72;70.01;100547.62;1732272;82;21537;-40
2021/05/07 05:28:30;;;;;;;0.28;0.28;;;;;;;11.98;68.74;100545.55;1731732;81;21117;-42
2021/05/07 05:30:57;;;;;;;0.30;0.30;;;;;;;12.26;66.63;100541.18;1715805;82;21155;-41
2021/05/07 05:33:27;;;;;;;0.57;0.57;;;;;;;12.51;65.19;100543.41;1730430;82;21177;-40
2021/05/07 05:35:55;;;;;;;0.40;0.40;;;;;;;12.77;62.08;100535.73;1739878;80;21139;-41
2021/05/07 05:38:22;;;;;;;0.10;0.10;;;;;;;13.04;59.08;100537.32;1732308;81;21142;-40
2021/05/07 05:40:50;;;;;;;0.37;0.37;;;;;;;13.31;57.83;100532.61;1731859;82;21179;-40
2021/05/07 05:43:17;;;;;;;0.98;0.55;;;;;;;13.56;57.62;100533.36;1712725;82;21166;-42
2021/05/07 05:45:45;;;;;;;0.75;0.25;;;;;;;13.79;55.84;100536.30;1702758;84;21214;-42
2021/05/07 05:48:14;;;;;;;0.20;0.20;;;;;;;14.00;56.23;100532.13;1723664;82;21152;-41
2021/05/07 05:50:46;;;;;;;0.10;0.10;;;;;;;14.15;54.06;100534.61;1731975;82;21133;-41
2021/05/07 05:53:14;;;;;;;0.13;0.13;;;;;;;14.29;53.67;100536.56;1731743;82;21154;-42
2021/05/07 05:55:41;;;;;;;1.67;0.50;;;;;;;14.47;53.41;100534.88;1732334;81;21437;-41
2021/05/07 05:58:09;;;;;;;0.00;0.00;;;;;;;14.63;51.83;100537.61;1732404;82;21149;-40
2021/05/07 06:00:37;;;;;;;0.00;0.00;;;;;;;14.79;49.11;100539.52;1728329;80;21135;-41
2021/05/07 06:03:05;;;;;;;0.30;0.15;;;;;;;14.92;47.36;100535.95;1725903;82;21111;-41
2021/05/07 06:05:32;;;;;;;0.20;0.20;;;;;;;15.00;43.92;100544.04;1732412;81;21184;-40
2021/05/07 06:08:00;;;;;;;0.00;0.00;;;;;;;15.04;40.04;100541.75;1732142;82;21185;-41
2021/05/07 06:10:28;;;;;;;0.00;0.00;;;;;;;15.12;41.14;100547.09;1732177;82;21592;-40
2021/05/07 06:12:56;;;;;;;0.00;0.00;;;;;;;15.26;42.37;100544.33;1732187;82;21138;-43
2021/05/07 06:15:24;;;;;;;0.10;0.10;;;;;;;15.43;42.35;100548.63;1732189;82;21214;-41
2021/05/07 06:17:52;;;;;;;0.00;0.00;;;;;;;15.66;41.53;100554.17;1732468;82;21141;-42
2021/05/07 06:20:20;;;;;;;0.08;0.08;;;;;;;15.83;41.36;100554.34;1732219;82;21133;-41
2021/05/07 06:22:48;;;;;;;0.40;0.15;;;;;;;15.97;40.72;100553.46;1700010;82;21153;-41
2021/05/07 06:25:17;;;;;;;0.82;0.78;;;;;;;16.07;42.46;100551.83;1731976;82;21150;-41
2021/05/07 06:27:45;;;;;;;0.45;0.20;;;;;;;16.12;41.96;100548.41;1740386;81;21094;-42
2021/05/07 06:30:14;;;;;;;0.30;0.30;;;;;;;16.19;42.29;100556.21;1750136;80;21186;-41
2021/05/07 06:32:42;;;;;;;1.75;0.47;;;;;;;16.26;43.73;100546.93;1750211;81;21151;-41
2021/05/07 06:35:11;;;;;;;0.05;0.03;;;;;;;16.36;42.04;100546.42;1750195;80;21146;-42
2021/05/07 06:37:40;;;;;;;0.25;0.20;;;;;;;16.45;43.08;100552.81;1749739;81;21102;-42
2021/05/07 06:40:09;;;;;;;0.10;0.10;;;;;;;16.55;42.09;100553.91;1750035;80;21087;-40
2021/05/07 06:42:38;;;;;;;0.15;0.15;;;;;;;16.64;41.34;100541.52;1723160;83;21133;-41
2021/05/07 06:45:11;;;;;;;0.03;0.03;;;;;;;16.82;42.23;100545.23;1723218;83;21181;-41
2021/05/07 06:47:39;;;;;;;0.10;0.10;;;;;;;17.03;40.26;100546.25;1705196;83;21142;-41
2021/05/07 06:50:08;;;;;;;0.17;0.13;;;;;;;17.15;40.65;100538.73;1732313;81;21513;-41
2021/05/07 06:52:36;;;;;;;0.00;0.00;;;;;;;17.23;39.58;100537.12;1732277;82;21770;-41
2021/05/07 06:55:05;;;;;;;0.10;0.10;;;;;;;17.20;37.95;100536.63;1732369;82;21142;-41
2021/05/07 06:57:33;;;;;;;0.00;0.00;;;;;;;17.28;40.36;100535.59;1731978;82;21179;-42
2021/05/07 07:00:01;;;;;;;0.00;0.00;;;;;;;17.46;40.59;100533.11;1709750;83;21404;-41
2021/05/07 07:02:29;;;;;;;0.10;0.10;;;;;;;17.66;39.97;100537.75;1723905;83;21185;-42
2021/05/07 07:04:57;;;;;;;0.00;0.00;;;;;;;17.80;39.57;100538.41;1721101;81;21119;-41
2021/05/07 07:07:26;;;;;;;1.07;0.42;;;;;;;17.97;37.27;100538.97;1723628;83;21576;-41
2021/05/07 07:09:54;;;;;;;0.10;0.10;;;;;;;18.10;36.09;100539.92;1723580;81;21142;-41
2021/05/07 07:12:22;;;;;;;0.23;0.23;;;;;;;18.18;36.05;100537.73;1731976;80;21154;-41
2021/05/07 07:14:51;;;;;;;0.00;0.00;;;;;;;18.32;35.63;100543.05;1731844;81;21114;-42
2021/05/07 07:17:18;;;;;;;0.65;0.47;;;;;;;18.48;36.70;100540.81;1731888;82;21431;-42
2021/05/07 07:19:46;;;;;;;0.25;0.25;;;;;;;18.70;34.38;100541.72;1746582;81;21158;-42
2021/05/07 07:22:16;;;;;;;0.20;0.00;;;;;;;18.83;33.65;100535.75;1723981;82;21601;-41
2021/05/07 07:24:44;;;;;;;0.15;0.15;;;;;;;18.90;35.12;100536.84;1723815;82;21131;-42
2021/05/07 07:27:11;;;;;;;0.00;0.00;;;;;;;18.96;33.92;100540.81;1723661;83;21448;-41
2021/05/07 07:29:39;;;;;;;0.28;0.20;;;;;;;18.96;35.06;100542.20;1723516;83;21143;-44
2021/05/07 07:32:07;;;;;;;0.35;0.28;;;;;;;18.98;35.15;100546.25;1723292;83;21525;-41
2021/05/07 07:34:35;;;;;;;0.10;0.10;;;;;;;18.90;34.19;100545.16;1723221;82;21152;-41
2021/05/07 07:37:03;;;;;;;0.10;0.10;;;;;;;18.82;34.08;100551.55;1723326;83;21954;-42
2021/05/07 07:39:30;;;;;;;0.00;0.00;;;;;;;18.82;33.24;100554.32;1723489;82;21131;-42
2021/05/07 07:41:58;;;;;;;0.17;0.17;;;;;;;18.86;33.55;100548.34;1710461;82;21496;-42
2021/05/07 07:44:26;;;;;;;0.10;0.10;;;;;;;19.01;32.91;100542.00;1720314;82;21349;-42
2021/05/07 07:46:54;;;;;;;0.20;0.20;;;;;;;19.18;33.72;100544.67;1723544;83;21166;-41
2021/05/07 07:49:22;;;;;;;0.15;0.15;;;;;;;19.18;33.72;100544.67;1731564;81;21130;-42
2021/05/07 07:51:49;;;;;;;0.65;0.30;;;;;;;19.36;33.50;100550.09;1686336;83;21193;-41
2021/05/07 07:54:17;;;;;;;0.30;0.30;;;;;;;19.49;32.60;100549.05;1702398;84;21157;-41
2021/05/07 07:56:45;;;;;;;0.53;0.53;;;;;;;19.55;31.90;100544.91;1709030;82;21149;-41
2021/05/07 07:59:12;;;;;;;0.00;0.00;;;;;;;19.52;29.79;100542.25;1731714;82;21619;-42
2021/05/07 08:01:42;;;;;;;0.10;0.10;;;;;;;19.48;30.67;100566.80;1732202;82;21142;-41
2021/05/07 08:04:09;;;;;;;0.30;0.17;;;;;;;19.34;30.23;100545.72;1732893;81;21580;-41
2021/05/07 08:06:38;;;;;;;0.20;0.20;;;;;;;19.30;30.22;100540.60;1731872;82;21181;-42
2021/05/07 08:09:08;;;;;;;0.10;0.10;;;;;;;19.30;31.91;100542.57;1732018;81;21265;-42
2021/05/07 08:11:36;;;;;;;0.00;0.00;;;;;;;19.32;30.41;100547.20;1731933;82;21221;-41
2021/05/07 08:14:04;;;;;;;0.08;0.08;;;;;;;19.37;30.19;100539.27;1731099;82;21193;-41
2021/05/07 08:16:32;;;;;;;0.35;0.08;;;;;;;19.42;30.25;100548.77;1732104;81;21395;-42
2021/05/07 08:19:00;;;;;;;0.10;0.10;;;;;;;19.39;30.69;100541.95;1717992;82;21119;-41
2021/05/07 08:21:29;;;;;;;0.00;0.00;;;;;;;19.37;31.94;100540.08;1730777;82;21157;-42
2021/05/07 08:23:59;;;;;;;0.45;0.45;;;;;;;19.39;30.53;100530.05;1732302;81;21461;-40
2021/05/07 08:26:26;;;;;;;0.10;0.10;;;;;;;19.39;30.53;100530.05;1733884;81;21169;-42
2021/05/07 08:28:53;;;;;;;0.17;0.17;;;;;;;19.42;30.56;100526.61;1755633;80;21202;-42
2021/05/07 08:31:21;;;;;;;0.00;0.00;;;;;;;19.48;30.44;100526.05;1755758;81;21135;-44
2021/05/07 08:33:48;;;;;;;0.10;0.10;;;;;;;19.61;32.93;100522.79;1755697;80;21150;-42
2021/05/07 08:36:16;;;;;;;0.20;0.20;;;;;;;19.67;30.57;100522.84;1755738;81;21150;-41
2021/05/07 08:38:43;;;;;;;0.15;0.10;;;;;;;19.67;29.94;100527.00;1755812;80;21636;-40
2021/05/07 08:41:11;;;;;;;0.20;0.20;;;;;;;19.63;30.36;100523.81;1754399;80;21663;-41
2021/05/07 08:43:39;;;;;;;0.57;0.13;;;;;;;19.67;29.59;100525.61;1734569;81;21608;-41
2021/05/07 08:46:08;;;;;;;0.00;0.00;;;;;;;19.74;29.70;100514.79;1724323;83;21569;-40
2021/05/07 08:48:38;;;;;;;0.00;0.00;;;;;;;19.76;31.19;100516.65;1734175;81;21312;-41
2021/05/07 08:51:06;;;;;;;0.00;0.00;;;;;;;19.85;30.75;100514.36;1720696;81;21172;-41
2021/05/07 08:53:34;;;;;;;0.33;0.10;;;;;;;19.94;29.92;100515.10;1737080;81;21149;-41
2021/05/07 08:56:06;;;;;;;0.20;0.20;;;;;;;19.88;29.39;100499.27;1737120;82;21141;-40
2021/05/07 08:58:34;;;;;;;0.10;0.10;;;;;;;19.78;29.91;100501.63;1736841;81;21149;-41
2021/05/07 09:01:03;;;;;;;0.23;0.05;;;;;;;19.70;30.16;100501.36;1732412;82;21667;-41
2021/05/07 09:03:43;;;;;;;0.13;0.13;;;;;;;19.69;30.57;100498.37;1720776;82;21443;-42
2021/05/07 09:06:18;;;;;;;0.00;0.00;;;;;;;19.64;29.18;100492.20;1737221;82;21588;-41
2021/05/07 09:08:48;;;;;;;0.05;0.03;;;;;;;19.58;30.35;100499.89;1736395;82;21151;-40
2021/05/07 09:11:18;;;;;;;0.08;0.08;;;;;;;19.59;30.97;100493.21;1737563;82;21163;-40
2021/05/07 09:13:45;;;;;;;0.00;0.00;;;;;;;19.54;28.98;100492.03;1737648;82;21220;-40
2021/05/07 09:16:15;;;;;;;0.17;0.17;;;;;;;19.53;31.17;100483.47;1720825;80;21201;-41
2021/05/07 09:18:48;;;;;;;0.08;0.08;;;;;;;19.66;31.36;100485.16;1756088;80;21450;-41
2021/05/07 09:21:16;;;;;;;0.00;0.00;;;;;;;19.85;29.71;100474.97;1736573;81;21528;-41
2021/05/07 09:23:47;;;;;;;0.40;0.10;;;;;;;20.02;29.53;100471.20;1705228;82;21172;-41
2021/05/07 09:26:16;;;;;;;0.00;0.00;;;;;;;20.19;29.38;100459.92;1721192;82;21146;-41
2021/05/07 09:29:02;;;;;;;0.30;0.30;;;;;;;20.36;28.95;100463.66;1759016;80;21624;-41
2021/05/07 09:31:29;;;;;;;0.10;0.10;;;;;;;20.58;29.52;100458.27;1769299;80;21144;-40
2021/05/07 09:34:02;;;;;;;0.20;0.20;;;;;;;20.81;28.26;100446.91;1767794;80;21142;-41
2021/05/07 09:36:31;;;;;;;1.22;0.30;;;;;;;20.97;27.88;100448.98;1759901;81;21101;-40
2021/05/07 09:39:00;;;;;;;0.70;0.70;;;;;;;21.14;28.55;100442.33;1759499;81;21130;-41
2021/05/07 09:41:42;;;;;;;0.20;0.20;;;;;;;21.26;28.94;100440.91;1755423;80;21458;-39
2021/05/07 09:44:24;;;;;;;0.05;0.05;;;;;;;21.34;27.67;100445.55;1788955;78;21141;-40
2021/05/07 09:46:54;;;;;;;0.10;0.10;;;;;;;21.28;28.99;100442.77;1789145;80;21145;-41
2021/05/07 09:49:29;;;;;;;0.10;0.10;;;;;;;21.09;28.99;100439.22;1788659;78;21154;-41
2021/05/07 09:51:58;;;;;;;1.55;0.42;;;;;;;20.86;30.26;100438.12;1788698;80;21181;-41
2021/05/07 09:54:26;;;;;;;0.10;0.10;;;;;;;20.78;29.41;100434.31;1788637;78;21146;-41
2021/05/07 09:56:54;;;;;;;0.00;0.00;;;;;;;20.82;29.40;100439.38;1788621;80;21122;-41
2021/05/07 09:59:23;;;;;;;0.00;0.00;;;;;;;20.85;28.82;100437.90;1759422;81;21145;-41
2021/05/07 10:01:51;;;;;;;5.40;2.05;;;;;;;20.87;28.03;100441.11;1788676;80;21121;-40
2021/05/07 10:04:18;;;;;;;0.00;0.00;;;;;;;20.88;28.71;100433.83;1788535;78;21655;-41
2021/05/07 10:06:46;;;;;;;0.10;0.10;;;;;;;20.84;27.89;100446.78;1788688;80;21114;-40
2021/05/07 10:09:23;;;;;;;0.00;0.00;;;;;;;20.76;27.36;100434.64;1758062;80;21134;-42
2021/05/07 10:11:52;;;;;;;0.15;0.15;;;;;;;20.72;28.73;100431.52;1749747;81;21173;-40
2021/05/07 10:14:21;;;;;;;0.00;0.00;;;;;;;20.75;28.53;100427.48;1710356;83;21166;-41
2021/05/07 10:16:49;;;;;;;0.03;0.03;;;;;;;20.79;28.94;100433.94;1751591;81;21558;-42
2021/05/07 10:19:18;;;;;;;1.10;0.62;;;;;;;20.78;27.80;100438.47;1708617;81;21469;-41
2021/05/07 10:21:47;;;;;;;0.00;0.00;;;;;;;20.72;27.18;100437.08;1788717;80;21527;-41
2021/05/07 10:24:17;;;;;;;0.15;0.03;;;;;;;20.65;27.09;100433.52;1788681;78;21466;-41
2021/05/07 10:26:51;;;;;;;0.23;0.23;;;;;;;20.66;26.85;100437.90;1787974;80;21235;-41
2021/05/07 10:29:24;;;;;;;0.27;0.20;;;;;;;20.63;27.41;100423.92;1791159;78;21134;-41
2021/05/07 10:31:58;;;;;;;0.00;0.00;;;;;;;20.56;27.84;100423.91;1793678;79;21387;-40
2021/05/07 10:34:27;;;;;;;0.00;0.00;;;;;;;20.55;28.30;100413.97;1792655;79;21118;-41
2021/05/07 10:37:01;;;;;;;0.70;0.40;;;;;;;20.54;28.10;100406.75;1793639;79;21161;-41
2021/05/07 10:39:31;;;;;;;0.30;0.30;;;;;;;20.51;27.43;100403.29;1793293;78;21138;-41
2021/05/07 10:42:01;;;;;;;0.00;0.00;;;;;;;20.44;27.77;100394.73;1762361;81;21572;-41
2021/05/07 10:44:33;;;;;;;0.20;0.20;;;;;;;20.45;29.26;100392.20;1725966;83;21150;-40
2021/05/07 10:47:10;;;;;;;0.10;0.10;;;;;;;20.58;28.46;100381.34;1718560;82;21137;-42
2021/05/07 10:49:41;;;;;;;0.80;0.25;;;;;;;20.66;28.95;100367.69;1709466;82;21221;-41
2021/05/07 10:52:19;;;;;;;0.30;0.20;;;;;;;20.86;29.45;100361.75;1825709;76;22709;-41
2021/05/07 10:54:54;;;;;;;0.10;0.10;;;;;;;20.94;28.96;100356.04;1801422;78;21576;-41
2021/05/07 10:57:27;;;;;;;0.17;0.10;;;;;;;21.04;29.15;100369.45;1788917;78;21165;-41
2021/05/07 11:00:03;;;;;;;0.10;0.10;;;;;;;21.10;28.45;100370.59;1790277;78;21158;-41
2021/05/07 11:02:46;;;;;;;0.30;0.10;;;;;;;20.98;27.33;100374.21;1799342;78;21205;-41
2021/05/07 11:05:38;;;;;;;0.28;0.15;;;;;;;20.84;28.03;100370.42;1816830;78;21516;-40
2021/05/07 11:08:07;;;;;;;0.05;0.05;;;;;;;20.75;28.66;100366.98;1818073;78;21154;-40
2021/05/07 11:10:34;;;;;;;0.05;0.03;;;;;;;20.71;28.10;100368.25;1815554;78;21126;-42
2021/05/07 11:13:03;;;;;;;0.53;0.40;;;;;;;20.76;27.74;100368.59;1806532;78;21161;-41
2021/05/07 11:15:30;;;;;;;0.53;0.10;;;;;;;20.78;27.78;100373.22;1785834;80;21511;-41
2021/05/07 11:18:03;;;;;;;0.08;0.08;;;;;;;20.71;27.59;100367.45;1792389;78;21149;-41
2021/05/07 11:20:35;;;;;;;0.08;0.08;;;;;;;20.50;27.45;100380.87;1804376;78;21472;-42
2021/05/07 11:23:06;;;;;;;0.00;0.00;;;;;;;20.19;28.20;100386.41;1785808;80;21262;-41
2021/05/07 11:25:33;;;;;;;0.08;0.08;;;;;;;19.95;28.50;100376.67;1795255;78;21545;-41
2021/05/07 11:28:20;;;;;;;0.28;0.28;;;;;;;19.78;29.06;100368.55;1817251;78;21138;-41
2021/05/07 11:30:52;;;;;;;0.10;0.10;;;;;;;19.60;29.26;100373.45;1796062;78;21173;-41
2021/05/07 11:33:26;;;;;;;0.10;0.00;;;;;;;19.31;30.77;100372.42;1796279;79;21117;-40
2021/05/07 11:36:13;;;;;;;0.80;0.10;;;;;;;19.31;30.77;100372.42;1805336;79;21140;-40